Time;durP1;ratioP1;P1;durP2;ratioP2;P2;SDS_P1;SDS_P2;PMS_P1;PMS_P2;Temp;Humidity;BMP_temperature;BMP_pressure;BME280_temperature;BME280_humidity;BME280_pressure;Samples;Min_cycle;Max_cycle;Signal;HPM_P1;HPM_P2
2023/03/01 00:00:40;;;;;;;26.67;17.75;;;;;;;0.85;61.90;103019.91;5133627;27;20031;-39
2023/03/01 00:03:05;;;;;;;26.17;18.05;;;;;;;0.86;62.27;103018.88;5133715;27;20111;-40
2023/03/01 00:05:30;;;;;;;23.25;15.85;;;;;;;0.83;62.53;103013.81;5133854;27;20101;-40
2023/03/01 00:07:55;;;;;;;23.90;16.88;;;;;;;0.86;62.63;103025.19;5133748;27;20452;-39
2023/03/01 00:10:21;;;;;;;25.27;18.35;;;;;;;0.86;62.21;103019.72;5133421;27;20034;-39
2023/03/01 00:12:46;;;;;;;24.52;16.90;;;;;;;0.88;62.01;103027.69;5133524;27;20076;-39
2023/03/01 00:15:12;;;;;;;23.30;16.65;;;;;;;0.85;61.83;103025.38;5133543;27;20045;-40
2023/03/01 00:17:37;;;;;;;26.73;20.38;;;;;;;0.83;61.79;103016.53;5129173;27;20093;-40
2023/03/01 00:20:05;;;;;;;28.75;22.17;;;;;;;0.72;61.98;103007.78;5133467;27;20082;-39
2023/03/01 00:22:30;;;;;;;31.85;22.08;;;;;;;0.69;62.45;103010.03;5133304;27;20481;-40
2023/03/01 00:24:55;;;;;;;23.83;17.50;;;;;;;0.69;62.70;103019.03;5133124;27;20019;-39
2023/03/01 00:27:21;;;;;;;28.85;19.88;;;;;;;0.66;62.49;103019.44;5133182;27;20056;-39
2023/03/01 00:29:46;;;;;;;29.13;20.42;;;;;;;0.62;63.20;103023.56;5133025;27;20091;-39
2023/03/01 00:32:11;;;;;;;33.90;22.40;;;;;;;0.59;62.89;103026.63;5132989;27;20538;-39
2023/03/01 00:34:36;;;;;;;27.60;19.92;;;;;;;0.55;62.88;103018.00;5133203;27;20131;-38
2023/03/01 00:37:04;;;;;;;29.30;18.90;;;;;;;0.50;63.91;103022.28;5133227;27;20038;-39
2023/03/01 00:39:30;;;;;;;26.02;17.23;;;;;;;0.47;63.96;103018.91;5133268;27;20058;-39
2023/03/01 00:41:56;;;;;;;23.38;15.95;;;;;;;0.50;63.58;103019.56;5132775;27;20118;-39
2023/03/01 00:44:21;;;;;;;22.73;16.23;;;;;;;0.46;63.38;103014.50;5133313;27;20023;-39
2023/03/01 00:46:47;;;;;;;25.00;17.08;;;;;;;0.47;63.78;103013.47;5132943;27;20023;-40
2023/03/01 00:49:13;;;;;;;23.75;16.17;;;;;;;0.52;64.08;103009.34;5127858;28;20019;-39
2023/03/01 00:51:41;;;;;;;28.27;18.70;;;;;;;0.54;64.08;103010.84;5132702;28;20038;-39
2023/03/01 00:54:09;;;;;;;24.67;17.40;;;;;;;0.49;64.47;102998.81;5131307;28;20094;-39
2023/03/01 00:56:34;;;;;;;41.85;26.52;;;;;;;0.48;63.95;103006.16;5132656;28;20031;-39
2023/03/01 00:59:00;;;;;;;30.48;19.23;;;;;;;0.45;64.11;102998.34;5132849;28;20126;-39
2023/03/01 01:01:31;;;;;;;22.77;15.90;;;;;;;0.29;64.20;102983.88;5132598;28;20089;-39
2023/03/01 01:04:00;;;;;;;53.28;33.33;;;;;;;0.33;64.21;102987.06;5127212;28;20150;-39
2023/03/01 01:06:32;;;;;;;30.70;19.38;;;;;;;0.29;64.36;102996.59;5128863;27;20084;-39
2023/03/01 01:08:58;;;;;;;36.22;21.08;;;;;;;0.26;64.46;103003.28;5130248;27;20030;-41
2023/03/01 01:11:27;;;;;;;26.05;18.27;;;;;;;0.28;65.21;102992.22;5136054;27;20027;-39
2023/03/01 01:13:52;;;;;;;31.65;20.48;;;;;;;0.29;65.21;102994.75;5132885;27;20042;-39
2023/03/01 01:16:20;;;;;;;25.70;17.02;;;;;;;0.26;64.87;102989.66;5118608;27;20371;-40
2023/03/01 01:18:45;;;;;;;34.67;20.48;;;;;;;0.20;64.73;102976.78;5133085;27;20549;-38
2023/03/01 01:21:14;;;;;;;32.08;19.98;;;;;;;0.12;64.83;102980.44;5134405;27;20027;-41
2023/03/01 01:23:41;;;;;;;29.30;18.05;;;;;;;0.09;64.95;102972.66;5116923;27;20032;-38
2023/03/01 01:26:12;;;;;;;28.40;18.58;;;;;;;0.04;65.40;102969.63;5136684;27;20094;-38
2023/03/01 01:28:37;;;;;;;27.42;17.75;;;;;;;0.03;65.66;102967.09;5136826;27;20095;-38
2023/03/01 01:31:04;;;;;;;23.75;16.15;;;;;;;0.03;65.72;102959.75;5136673;27;20030;-38
2023/03/01 01:33:29;;;;;;;23.58;16.48;;;;;;;0.04;65.66;102955.19;5118141;27;20027;-38
2023/03/01 01:35:54;;;;;;;22.08;15.60;;;;;;;0.01;65.40;102955.53;5136659;27;20019;-38
2023/03/01 01:38:21;;;;;;;22.83;15.50;;;;;;;-0.04;66.04;102953.34;5136576;27;20139;-39
2023/03/01 01:40:47;;;;;;;22.27;15.18;;;;;;;-0.10;66.44;102952.22;5136605;27;20050;-39
2023/03/01 01:43:29;;;;;;;22.38;15.15;;;;;;;-0.09;66.62;102955.75;5136421;27;20035;-39
2023/03/01 01:46:01;;;;;;;21.92;15.13;;;;;;;-0.14;67.00;102947.31;5136441;27;20050;-39
2023/03/01 01:48:40;;;;;;;21.70;15.10;;;;;;;-0.14;66.36;102953.59;5136197;27;20443;-41
2023/03/01 01:51:09;;;;;;;24.25;15.50;;;;;;;-0.18;66.58;102941.41;5136315;27;20467;-39
2023/03/01 01:53:36;;;;;;;21.13;14.60;;;;;;;-0.16;67.03;102942.91;5133897;27;20023;-39
2023/03/01 01:56:03;;;;;;;21.98;15.60;;;;;;;-0.14;66.47;102945.44;5115623;28;20355;-40
2023/03/01 01:58:31;;;;;;;21.95;15.23;;;;;;;-0.15;67.37;102932.88;5115732;28;20054;-40
2023/03/01 02:00:56;;;;;;;23.33;14.93;;;;;;;-0.09;67.34;102937.59;5112189;28;20039;-40
2023/03/01 02:03:36;;;;;;;22.65;15.35;;;;;;;-0.07;66.95;102927.38;5113673;28;20027;-39
2023/03/01 02:06:14;;;;;;;21.40;14.90;;;;;;;-0.02;66.82;102933.09;5109898;28;20019;-39
2023/03/01 02:08:41;;;;;;;21.85;15.73;;;;;;;-0.12;66.61;102921.59;5111403;28;20023;-39
2023/03/01 02:11:07;;;;;;;22.80;15.32;;;;;;;-0.11;66.48;102938.78;5115345;28;20020;-38
2023/03/01 02:13:33;;;;;;;21.50;14.73;;;;;;;-0.12;66.84;102927.06;5115256;28;20034;-39
2023/03/01 02:16:02;;;;;;;21.92;14.80;;;;;;;-0.15;66.70;102932.88;5115303;28;20063;-41
2023/03/01 02:18:27;;;;;;;23.05;14.68;;;;;;;-0.14;67.60;102931.00;5114073;28;20107;-39
2023/03/01 02:21:05;;;;;;;20.58;14.52;;;;;;;-0.17;67.47;102922.16;5111162;28;20024;-39
2023/03/01 02:23:31;;;;;;;22.48;14.45;;;;;;;-0.13;67.52;102925.34;5115026;28;20077;-39
2023/03/01 02:26:24;;;;;;;21.48;14.70;;;;;;;-0.18;67.61;102914.19;5114984;28;20027;-39
2023/03/01 02:28:50;;;;;;;22.48;14.25;;;;;;;-0.12;68.10;102926.22;5096990;28;20031;-40
2023/03/01 02:34:04;;;;;;;20.55;14.02;;;;;;;-0.07;67.40;102915.63;5114972;28;20034;-40
2023/03/01 02:36:36;;;;;;;20.77;13.90;;;;;;;-0.10;67.87;102910.56;5114863;28;20023;-40
2023/03/01 02:39:04;;;;;;;21.52;14.32;;;;;;;-0.02;66.59;102915.94;5115198;28;20020;-39
2023/03/01 02:41:34;;;;;;;22.00;14.07;;;;;;;-0.01;67.33;102920.34;5096510;28;20031;-39
2023/03/01 02:44:00;;;;;;;22.88;14.50;;;;;;;-0.04;67.50;102915.25;5113461;28;20660;-40
2023/03/01 02:46:26;;;;;;;20.38;13.70;;;;;;;0.04;67.95;102920.63;5114830;28;20111;-41
2023/03/01 02:48:56;;;;;;;20.52;14.05;;;;;;;0.11;67.37;102918.03;5114636;28;20134;-41
2023/03/01 02:51:31;;;;;;;21.83;13.98;;;;;;;0.08;67.29;102930.13;5114543;28;20402;-40
2023/03/01 02:54:17;;;;;;;21.38;13.43;;;;;;;0.10;67.52;102927.22;5114816;28;20106;-41
2023/03/01 02:56:45;;;;;;;21.38;13.43;;;;;;;0.09;66.99;102914.63;5114604;28;20387;-40
2023/03/01 02:59:11;;;;;;;20.65;13.32;;;;;;;0.05;67.18;102916.88;5114343;28;20051;-41
2023/03/01 03:01:36;;;;;;;20.92;13.52;;;;;;;0.04;67.51;102914.34;5114528;28;20124;-40
2023/03/01 03:04:07;;;;;;;21.10;13.25;;;;;;;0.03;67.69;102907.22;5108611;28;20117;-42
2023/03/01 03:06:32;;;;;;;22.13;13.90;;;;;;;-0.01;67.10;102913.00;5114426;28;20475;-41
2023/03/01 03:08:58;;;;;;;20.55;13.38;;;;;;;-0.07;67.08;102919.19;5114281;28;20042;-41
2023/03/01 03:11:23;;;;;;;22.63;14.25;;;;;;;-0.12;67.31;102916.16;5113984;28;20023;-38
2023/03/01 03:13:49;;;;;;;20.83;13.30;;;;;;;-0.07;68.22;102918.34;5113908;28;20494;-37
2023/03/01 03:16:15;;;;;;;22.60;14.07;;;;;;;-0.08;68.00;102911.19;5113916;28;20389;-38
2023/03/01 03:18:40;;;;;;;20.67;13.02;;;;;;;-0.03;67.31;102922.41;5114005;28;20040;-38
2023/03/01 03:21:11;;;;;;;21.33;13.20;;;;;;;-0.05;67.49;102916.28;5110016;28;20072;-40
2023/03/01 03:23:37;;;;;;;20.48;13.15;;;;;;;-0.05;67.19;102919.84;5114156;28;20111;-40
2023/03/01 03:26:06;;;;;;;20.67;13.18;;;;;;;-0.11;67.72;102906.16;5113975;28;20058;-39
2023/03/01 03:28:33;;;;;;;19.75;13.35;;;;;;;-0.12;67.34;102905.28;5109931;28;20032;-40
2023/03/01 03:31:03;;;;;;;19.67;13.02;;;;;;;-0.17;67.50;102916.72;5113333;28;20028;-39
2023/03/01 03:33:31;;;;;;;20.48;12.90;;;;;;;-0.18;67.71;102912.31;5113822;28;20051;-37
2023/03/01 03:35:56;;;;;;;19.25;12.82;;;;;;;-0.20;67.92;102914.38;5113817;28;20046;-40
2023/03/01 03:38:22;;;;;;;20.80;12.63;;;;;;;-0.21;68.29;102915.41;5113881;28;20019;-40
2023/03/01 03:41:00;;;;;;;21.63;12.68;;;;;;;-0.30;68.15;102900.19;5113710;28;20502;-40
2023/03/01 03:43:26;;;;;;;21.60;13.45;;;;;;;-0.23;67.60;102908.44;5113793;28;20031;-43
2023/03/01 03:45:51;;;;;;;20.95;13.15;;;;;;;-0.32;67.69;102915.84;5109706;28;20019;-40
2023/03/01 03:48:18;;;;;;;21.58;13.38;;;;;;;-0.36;68.55;102912.63;5113713;28;20028;-40
2023/03/01 03:50:48;;;;;;;20.58;13.73;;;;;;;-0.35;68.72;102905.31;5113344;28;20027;-38
2023/03/01 03:53:13;;;;;;;21.05;13.50;;;;;;;-0.39;68.23;102901.28;5113509;28;20019;-37
2023/03/01 03:55:39;;;;;;;20.27;13.30;;;;;;;-0.43;68.35;102903.53;5113325;28;20031;-40
2023/03/01 03:58:09;;;;;;;20.90;13.30;;;;;;;-0.44;68.51;102909.13;5113277;28;20081;-40
2023/03/01 04:00:43;;;;;;;20.30;13.00;;;;;;;-0.46;69.32;102909.31;5112615;28;20020;-40
2023/03/01 04:03:09;;;;;;;21.25;13.65;;;;;;;-0.45;68.47;102901.97;5111048;28;20092;-40
2023/03/01 04:05:35;;;;;;;20.58;13.65;;;;;;;-0.53;68.23;102895.59;5109918;28;20051;-41
2023/03/01 04:08:06;;;;;;;20.55;13.20;;;;;;;-0.52;69.44;102897.28;5111932;28;20463;-39
2023/03/01 04:10:40;;;;;;;19.45;12.95;;;;;;;-0.52;70.00;102894.56;5110767;28;20146;-39
2023/03/01 04:13:09;;;;;;;21.17;13.40;;;;;;;-0.49;69.37;102886.06;5113202;28;20035;-39
2023/03/01 04:15:35;;;;;;;20.98;14.10;;;;;;;-0.51;68.88;102892.69;5112912;28;20441;-38
2023/03/01 04:18:01;;;;;;;20.55;13.40;;;;;;;-0.55;69.32;102883.19;5109085;28;20050;-39
2023/03/01 04:20:29;;;;;;;20.73;13.75;;;;;;;-0.82;69.06;102850.09;5111058;28;20023;-39
2023/03/01 04:23:10;;;;;;;20.48;13.75;;;;;;;-0.67;69.38;102875.47;5111284;28;20032;-38
2023/03/01 04:25:44;;;;;;;20.20;12.68;;;;;;;-0.63;69.51;102887.69;5112764;28;20031;-38
2023/03/01 04:28:10;;;;;;;19.38;13.23;;;;;;;-0.64;69.69;102879.69;5109030;28;20027;-39
2023/03/01 04:30:37;;;;;;;20.80;13.43;;;;;;;-0.61;69.67;102883.94;5094459;28;20034;-39
2023/03/01 04:33:04;;;;;;;21.33;13.43;;;;;;;-0.71;69.95;102862.41;5111950;28;20023;-39
2023/03/01 04:35:31;;;;;;;20.65;13.55;;;;;;;-0.65;69.61;102870.69;5106381;28;20088;-39
2023/03/01 04:37:56;;;;;;;20.80;13.80;;;;;;;-0.58;69.84;102867.25;5112805;28;20104;-39
2023/03/01 04:40:21;;;;;;;21.83;13.85;;;;;;;-0.64;69.81;102869.69;5112780;28;20051;-39
2023/03/01 04:42:47;;;;;;;21.65;14.02;;;;;;;-0.72;69.08;102867.03;5112058;28;20035;-39
2023/03/01 04:45:15;;;;;;;22.30;13.82;;;;;;;-0.83;70.33;102849.22;5094350;28;20092;-39
2023/03/01 04:47:45;;;;;;;21.75;14.07;;;;;;;-0.82;70.19;102864.53;5112555;28;20482;-40
2023/03/01 04:50:13;;;;;;;22.52;14.10;;;;;;;-0.85;70.84;102856.72;5112656;28;20024;-39
2023/03/01 04:52:38;;;;;;;22.75;13.98;;;;;;;-0.81;70.79;102862.66;5112744;28;20023;-39
2023/03/01 04:55:05;;;;;;;21.00;13.57;;;;;;;-0.81;70.50;102862.66;5112513;28;20055;-39
2023/03/01 04:57:30;;;;;;;21.02;13.50;;;;;;;-0.87;71.12;102869.66;5112767;28;20051;-39
2023/03/01 04:59:56;;;;;;;21.98;14.35;;;;;;;-0.89;70.98;102860.84;5112584;28;20016;-40
2023/03/01 05:02:21;;;;;;;24.77;14.60;;;;;;;-0.90;71.39;102863.75;5112371;28;20031;-40
2023/03/01 05:04:46;;;;;;;21.42;14.27;;;;;;;-0.92;71.61;102863.06;5112397;28;20443;-40
2023/03/01 05:07:12;;;;;;;21.15;14.18;;;;;;;-0.92;71.41;102860.34;5112419;28;20024;-39
2023/03/01 05:09:38;;;;;;;21.60;14.35;;;;;;;-0.87;71.61;102858.78;5112652;28;20020;-40
2023/03/01 05:12:04;;;;;;;21.88;14.27;;;;;;;-0.84;70.60;102857.56;5112436;28;20024;-40
2023/03/01 05:14:29;;;;;;;21.05;14.65;;;;;;;-0.90;70.58;102847.44;5112382;28;20118;-39
2023/03/01 05:16:54;;;;;;;22.17;14.40;;;;;;;-0.87;71.33;102855.22;5106750;28;20069;-39
2023/03/01 05:19:22;;;;;;;22.98;14.80;;;;;;;-0.88;70.72;102848.94;5112440;28;20028;-39
2023/03/01 05:22:03;;;;;;;21.65;14.90;;;;;;;-0.96;70.71;102849.84;5110755;28;20045;-39
2023/03/01 05:24:33;;;;;;;20.65;14.13;;;;;;;-0.98;71.36;102841.00;5112400;28;20403;-38
2023/03/01 05:27:00;;;;;;;23.27;14.40;;;;;;;-0.97;71.67;102844.59;5112230;28;20024;-38
2023/03/01 05:29:27;;;;;;;23.55;13.95;;;;;;;-1.07;71.55;102825.78;5112390;28;20453;-38
2023/03/01 05:31:54;;;;;;;22.13;14.55;;;;;;;-1.05;72.35;102831.06;5112017;28;20023;-38
2023/03/01 05:34:27;;;;;;;21.10;14.00;;;;;;;-1.04;71.57;102824.59;5108704;28;20020;-39
2023/03/01 05:36:54;;;;;;;21.58;14.40;;;;;;;-1.08;71.75;102821.38;5108123;28;20471;-38
2023/03/01 05:39:25;;;;;;;22.50;14.25;;;;;;;-1.16;72.43;102811.41;5112248;28;20047;-39
2023/03/01 05:41:59;;;;;;;20.95;14.43;;;;;;;-1.34;72.05;102779.09;5112292;28;20024;-39
2023/03/01 05:44:25;;;;;;;20.77;14.30;;;;;;;-1.10;72.86;102818.84;5111399;28;20024;-40
2023/03/01 05:46:51;;;;;;;21.52;14.70;;;;;;;-1.10;72.07;102809.88;5103247;28;20061;-39
2023/03/01 05:49:17;;;;;;;19.95;13.77;;;;;;;-1.01;72.23;102813.34;5108252;28;20118;-40
2023/03/01 05:51:48;;;;;;;21.65;14.48;;;;;;;-1.05;71.53;102817.47;5112019;28;20111;-39
2023/03/01 05:54:13;;;;;;;22.88;14.52;;;;;;;-1.03;72.20;102809.97;5115199;28;20114;-38
2023/03/01 05:56:38;;;;;;;21.10;14.20;;;;;;;-1.06;71.79;102807.63;5115529;28;20023;-39
2023/03/01 05:59:07;;;;;;;21.33;14.25;;;;;;;-1.02;72.02;102817.97;5115467;28;20055;-39
2023/03/01 06:01:34;;;;;;;22.20;14.93;;;;;;;-1.02;71.64;102817.09;5115572;28;20508;-40
2023/03/01 06:04:00;;;;;;;22.00;14.73;;;;;;;-1.09;71.97;102817.00;5111944;28;20025;-39
2023/03/01 06:06:25;;;;;;;21.58;15.40;;;;;;;-1.07;71.69;102822.22;5112766;28;20023;-39
2023/03/01 06:08:52;;;;;;;20.75;14.07;;;;;;;-1.13;72.55;102815.63;5115359;28;20479;-38
2023/03/01 06:11:17;;;;;;;21.13;14.45;;;;;;;-1.15;72.71;102826.69;5115068;28;20077;-39
2023/03/01 06:13:44;;;;;;;22.80;15.52;;;;;;;-1.19;72.60;102819.91;5111039;28;20388;-39
2023/03/01 06:16:09;;;;;;;23.27;16.23;;;;;;;-1.17;72.53;102819.72;5115264;28;20034;-39
2023/03/01 06:18:35;;;;;;;23.98;16.02;;;;;;;-1.20;72.62;102820.94;5112618;28;20024;-41
2023/03/01 06:21:01;;;;;;;22.75;15.93;;;;;;;-1.18;73.26;102818.06;5113439;28;20472;-39
2023/03/01 06:23:26;;;;;;;23.10;15.35;;;;;;;-1.22;73.61;102812.13;5115233;28;20028;-40
2023/03/01 06:25:52;;;;;;;26.02;18.00;;;;;;;-1.22;73.34;102814.84;5114967;28;20416;-39
2023/03/01 06:28:17;;;;;;;24.38;16.60;;;;;;;-1.27;73.41;102820.78;5115105;28;20030;-39
2023/03/01 06:30:43;;;;;;;27.13;17.50;;;;;;;-1.28;73.59;102818.28;5114929;28;20433;-38
2023/03/01 06:33:08;;;;;;;26.13;16.80;;;;;;;-1.23;73.57;102818.59;5114868;28;20015;-39
2023/03/01 06:35:34;;;;;;;22.23;15.20;;;;;;;-1.23;72.97;102823.16;5110984;28;20520;-38
2023/03/01 06:38:01;;;;;;;21.98;14.88;;;;;;;-1.24;72.68;102829.63;5114878;28;20027;-39
2023/03/01 06:40:27;;;;;;;23.27;15.00;;;;;;;-1.28;73.24;102824.56;5115253;27;20023;-39
2023/03/01 06:42:52;;;;;;;22.90;15.02;;;;;;;-1.30;73.14;102823.03;5114767;28;20024;-39
2023/03/01 06:45:20;;;;;;;22.85;14.60;;;;;;;-1.32;73.94;102820.50;5115002;28;20421;-39
2023/03/01 06:47:45;;;;;;;22.42;14.63;;;;;;;-1.27;73.53;102825.41;5114644;28;20036;-39
2023/03/01 06:50:11;;;;;;;23.33;14.55;;;;;;;-1.33;73.88;102821.53;5109984;28;20027;-40
2023/03/01 06:52:37;;;;;;;22.02;14.77;;;;;;;-1.33;74.08;102826.13;5104595;28;20023;-40
2023/03/01 06:55:03;;;;;;;24.30;15.65;;;;;;;-1.30;75.18;102831.19;5106357;28;20365;-39
2023/03/01 06:57:28;;;;;;;23.45;15.77;;;;;;;-1.29;74.44;102822.00;5094105;28;20054;-38
2023/03/01 06:59:54;;;;;;;24.35;15.70;;;;;;;-1.28;75.02;102827.28;5107567;28;20090;-40
2023/03/01 07:02:19;;;;;;;20.92;14.60;;;;;;;-1.29;74.82;102812.00;5095215;28;20356;-40
2023/03/01 07:04:44;;;;;;;24.17;15.68;;;;;;;-1.30;74.86;102809.44;5112749;28;20038;-39
2023/03/01 07:07:10;;;;;;;23.05;15.13;;;;;;;-1.23;75.00;102817.75;5113347;28;20028;-39
2023/03/01 07:09:35;;;;;;;21.75;15.10;;;;;;;-1.16;75.36;102810.56;5094839;28;20107;-38
2023/03/01 07:12:01;;;;;;;22.90;16.42;;;;;;;-1.13;74.43;102810.22;5113160;28;20097;-39
2023/03/01 07:14:26;;;;;;;23.10;15.65;;;;;;;-1.13;74.39;102813.75;5113145;28;20030;-39
2023/03/01 07:16:52;;;;;;;24.00;17.23;;;;;;;-1.15;74.54;102813.13;5114042;28;20043;-40
2023/03/01 07:19:18;;;;;;;25.58;16.52;;;;;;;-1.14;74.37;102812.09;5114321;28;20020;-39
2023/03/01 07:21:43;;;;;;;26.33;17.92;;;;;;;-1.11;74.85;102819.03;5114110;28;20391;-39
2023/03/01 07:24:09;;;;;;;24.98;16.50;;;;;;;-1.07;74.92;102819.50;5112152;28;20480;-39
2023/03/01 07:26:34;;;;;;;22.83;15.88;;;;;;;-0.98;75.65;102822.00;5093806;28;20392;-39
2023/03/01 07:29:01;;;;;;;22.52;15.38;;;;;;;-0.84;75.42;102823.06;5093657;28;20068;-39
2023/03/01 07:31:27;;;;;;;22.60;15.52;;;;;;;-0.72;74.48;102822.66;5093481;28;20468;-39
2023/03/01 07:33:54;;;;;;;22.02;14.48;;;;;;;-0.65;73.78;102824.47;5075380;28;20498;-38
2023/03/01 07:36:19;;;;;;;23.88;15.38;;;;;;;-0.61;73.18;102815.97;5075295;28;20035;-38
2023/03/01 07:38:45;;;;;;;21.67;14.93;;;;;;;-0.49;73.28;102833.53;5093488;28;20028;-39
2023/03/01 07:41:10;;;;;;;22.20;14.98;;;;;;;-0.40;73.59;102826.16;5093465;28;20059;-39
2023/03/01 07:43:35;;;;;;;24.45;16.05;;;;;;;-0.32;72.60;102828.78;5093472;28;20027;-39
2023/03/01 07:46:01;;;;;;;24.95;15.45;;;;;;;-0.20;72.09;102835.50;5093313;28;20100;-39
2023/03/01 07:48:27;;;;;;;21.98;14.65;;;;;;;-0.07;73.02;102834.00;5093397;28;20059;-38
2023/03/01 07:50:53;;;;;;;21.95;14.82;;;;;;;0.02;71.78;102827.44;5093189;28;20520;-38
2023/03/01 07:53:18;;;;;;;22.02;15.30;;;;;;;0.09;71.34;102831.13;5118783;27;20031;-38
2023/03/01 07:55:43;;;;;;;22.27;14.82;;;;;;;0.17;70.69;102829.34;5134016;27;20033;-39
2023/03/01 07:58:09;;;;;;;22.58;14.52;;;;;;;0.27;71.56;102828.00;5133310;27;20051;-38
2023/03/01 08:00:34;;;;;;;22.10;14.68;;;;;;;0.38;70.84;102826.69;5113441;28;20501;-38
2023/03/01 08:03:00;;;;;;;22.17;14.73;;;;;;;0.40;70.38;102815.63;5113455;28;20080;-38
2023/03/01 08:05:26;;;;;;;21.42;14.30;;;;;;;0.48;70.94;102820.97;5113366;28;20028;-39
2023/03/01 08:07:52;;;;;;;22.55;14.75;;;;;;;0.55;70.29;102827.31;5113298;28;20042;-39
2023/03/01 08:10:17;;;;;;;22.70;14.90;;;;;;;0.61;69.78;102829.28;5113480;28;20094;-41
2023/03/01 08:12:43;;;;;;;20.73;14.60;;;;;;;0.67;69.67;102832.28;5113210;28;20023;-39
2023/03/01 08:15:09;;;;;;;21.42;13.90;;;;;;;0.68;69.42;102826.66;5113174;28;20030;-39
2023/03/01 08:17:34;;;;;;;24.13;14.73;;;;;;;0.80;69.16;102837.91;5112034;28;20039;-38
2023/03/01 08:20:00;;;;;;;21.52;14.18;;;;;;;0.86;69.20;102830.84;5113105;28;20024;-39
2023/03/01 08:22:25;;;;;;;23.25;15.00;;;;;;;0.97;68.32;102829.50;5113056;28;20552;-38
2023/03/01 08:24:50;;;;;;;23.35;14.10;;;;;;;1.01;69.47;102823.47;5113029;28;20502;-39
2023/03/01 08:27:17;;;;;;;23.02;14.32;;;;;;;1.08;67.61;102827.09;5112936;28;20028;-39
2023/03/01 08:29:42;;;;;;;21.92;14.15;;;;;;;1.18;67.79;102823.22;5094577;28;20066;-39
2023/03/01 08:32:08;;;;;;;22.00;14.77;;;;;;;1.27;67.97;102821.22;5112728;28;20466;-39
2023/03/01 08:34:35;;;;;;;21.05;13.93;;;;;;;1.32;67.46;102816.88;5112926;28;20482;-39
2023/03/01 08:37:01;;;;;;;23.42;14.60;;;;;;;1.44;67.22;102816.31;5112785;28;20028;-39
2023/03/01 08:39:27;;;;;;;22.48;14.45;;;;;;;1.55;67.22;102813.06;5112959;28;20023;-39
2023/03/01 08:41:52;;;;;;;21.67;13.77;;;;;;;1.63;66.71;102810.19;5112763;28;20030;-39
2023/03/01 08:44:18;;;;;;;21.77;14.30;;;;;;;1.66;66.59;102798.91;5112818;28;20028;-38
2023/03/01 08:46:45;;;;;;;22.40;14.07;;;;;;;1.77;66.67;102808.41;5112848;28;20039;-39
2023/03/01 08:49:15;;;;;;;22.27;14.00;;;;;;;1.83;67.08;102796.72;5112680;28;20027;-38
2023/03/01 08:51:42;;;;;;;21.63;14.10;;;;;;;1.94;65.64;102784.41;5112594;28;20066;-39
2023/03/01 08:54:13;;;;;;;22.70;13.40;;;;;;;2.01;65.04;102793.47;5112666;28;20031;-39
2023/03/01 08:56:38;;;;;;;23.23;13.88;;;;;;;2.10;66.08;102787.84;5094337;28;20497;-38
2023/03/01 08:59:03;;;;;;;22.23;14.30;;;;;;;2.23;64.44;102796.13;5094175;28;20051;-40
2023/03/01 09:01:29;;;;;;;20.98;14.27;;;;;;;2.28;64.08;102796.34;5112247;28;20490;-39
2023/03/01 09:03:54;;;;;;;21.90;14.52;;;;;;;2.36;63.09;102791.78;5112291;28;20110;-39
2023/03/01 09:06:20;;;;;;;20.70;13.85;;;;;;;2.38;64.67;102781.47;5112576;28;20031;-39
2023/03/01 09:08:48;;;;;;;22.90;15.15;;;;;;;2.42;64.17;102777.28;5112543;28;20479;-38
2023/03/01 09:11:16;;;;;;;21.20;13.77;;;;;;;2.60;66.09;102787.66;5112448;28;20497;-38
2023/03/01 09:13:42;;;;;;;22.13;14.05;;;;;;;2.90;65.29;102785.44;5112473;28;20036;-38
2023/03/01 09:16:08;;;;;;;21.55;14.40;;;;;;;3.08;63.33;102782.09;5112511;28;20034;-38
2023/03/01 09:18:34;;;;;;;21.88;15.25;;;;;;;3.16;61.68;102781.06;5112371;28;20037;-38
2023/03/01 09:21:07;;;;;;;21.02;13.75;;;;;;;3.19;61.00;102780.66;5111639;28;20031;-37
2023/03/01 09:23:38;;;;;;;20.73;14.27;;;;;;;3.25;61.45;102776.25;5090849;28;20035;-38
2023/03/01 09:26:05;;;;;;;22.25;14.07;;;;;;;3.24;60.35;102769.94;5090611;28;20467;-39
2023/03/01 09:28:30;;;;;;;21.65;13.95;;;;;;;3.29;60.30;102766.56;5074621;28;20036;-39
2023/03/01 09:31:00;;;;;;;21.08;13.55;;;;;;;3.31;59.86;102772.66;5134283;27;20031;-39
2023/03/01 09:33:27;;;;;;;20.90;13.50;;;;;;;3.41;58.87;102764.03;5135759;27;20046;-39
2023/03/01 09:35:59;;;;;;;22.65;13.75;;;;;;;3.45;58.70;102761.75;5135688;27;20019;-39
2023/03/01 09:38:25;;;;;;;21.77;13.95;;;;;;;3.41;57.73;102759.41;5135536;27;20138;-39
2023/03/01 09:40:50;;;;;;;20.65;14.07;;;;;;;3.34;57.71;102758.56;5132052;27;20550;-38
2023/03/01 09:43:27;;;;;;;20.40;13.93;;;;;;;3.32;59.09;102754.34;5119954;27;20376;-39
2023/03/01 09:45:55;;;;;;;21.70;14.38;;;;;;;3.35;58.70;102752.06;5114567;28;20035;-39
2023/03/01 09:48:26;;;;;;;21.58;14.80;;;;;;;3.40;57.84;102743.22;5114870;28;20032;-40
2023/03/01 09:50:52;;;;;;;20.50;13.85;;;;;;;3.49;57.79;102752.03;5096454;28;20058;-38
2023/03/01 09:53:31;;;;;;;22.33;14.38;;;;;;;3.51;57.69;102745.28;5114755;28;20031;-39
2023/03/01 09:56:03;;;;;;;21.25;14.40;;;;;;;3.53;58.09;102737.72;5114865;28;20031;-39
2023/03/01 09:58:52;;;;;;;21.50;14.65;;;;;;;3.68;57.38;102750.34;5115108;28;20388;-38
2023/03/01 10:01:32;;;;;;;20.25;13.95;;;;;;;3.51;56.50;102712.47;5114816;28;20019;-38
2023/03/01 10:04:25;;;;;;;22.15;13.65;;;;;;;3.73;57.20;102747.81;5115230;28;20069;-38
2023/03/01 10:07:02;;;;;;;22.67;14.05;;;;;;;3.81;56.37;102736.63;5111308;28;20110;-37
2023/03/01 10:09:32;;;;;;;20.80;13.88;;;;;;;3.80;56.08;102729.47;5107375;28;20152;-38
2023/03/01 10:12:01;;;;;;;22.50;14.10;;;;;;;3.81;55.62;102733.06;5081341;28;20063;-37
2023/03/01 10:14:38;;;;;;;19.88;13.55;;;;;;;3.83;56.00;102714.50;5093864;28;20487;-38
2023/03/01 10:17:28;;;;;;;21.38;13.98;;;;;;;3.83;56.21;102715.34;5093635;28;20043;-38
2023/03/01 10:19:55;;;;;;;21.35;14.10;;;;;;;3.90;55.88;102718.91;5093737;28;20468;-38
2023/03/01 10:22:31;;;;;;;21.90;13.75;;;;;;;4.01;55.41;102706.47;5093599;28;20028;-38
2023/03/01 10:24:59;;;;;;;20.45;13.70;;;;;;;4.02;54.72;102704.56;5093483;28;20482;-38
2023/03/01 10:27:46;;;;;;;21.40;14.02;;;;;;;4.00;55.14;102685.59;5093345;28;20032;-39
2023/03/01 10:30:35;;;;;;;20.67;13.23;;;;;;;4.09;54.46;102691.66;5093509;28;20028;-38
2023/03/01 10:33:02;;;;;;;21.67;14.18;;;;;;;4.19;54.21;102696.69;5093575;28;20028;-38
2023/03/01 10:35:32;;;;;;;21.50;14.05;;;;;;;4.24;53.40;102690.56;5093509;28;20039;-38
2023/03/01 10:38:10;;;;;;;19.73;13.65;;;;;;;4.22;53.50;102683.41;5093236;28;20060;-37
2023/03/01 10:40:49;;;;;;;21.58;13.57;;;;;;;4.31;53.28;102694.94;5090794;28;20081;-38
2023/03/01 10:43:15;;;;;;;21.95;13.85;;;;;;;4.37;52.76;102695.97;5093391;28;20040;-38
2023/03/01 10:45:40;;;;;;;22.48;13.68;;;;;;;4.44;53.88;102685.81;5093474;28;20077;-38
2023/03/01 10:48:13;;;;;;;23.58;14.05;;;;;;;4.35;52.98;102681.63;5093349;28;20085;-38
2023/03/01 10:50:41;;;;;;;21.83;14.37;;;;;;;4.39;52.40;102690.28;5092997;28;20058;-38
2023/03/01 10:53:31;;;;;;;20.58;13.77;;;;;;;4.42;52.82;102698.03;5092232;28;20298;-39
2023/03/01 10:56:09;;;;;;;20.85;13.95;;;;;;;4.45;52.95;102692.13;5092054;28;20843;-38
2023/03/01 10:58:40;;;;;;;21.35;13.70;;;;;;;4.48;52.81;102691.72;5091766;28;20044;-38
2023/03/01 11:01:27;;;;;;;19.95;13.68;;;;;;;4.49;52.97;102685.13;5092661;28;20484;-38
2023/03/01 11:04:07;;;;;;;21.60;14.35;;;;;;;4.49;52.68;102680.53;5092939;28;20024;-38
2023/03/01 11:06:35;;;;;;;22.40;14.18;;;;;;;4.49;52.65;102690.63;5092930;28;20182;-38
2023/03/01 11:09:19;;;;;;;21.52;14.85;;;;;;;4.50;52.59;102678.59;5091698;28;20404;-38
2023/03/01 11:11:45;;;;;;;20.88;13.90;;;;;;;4.49;51.37;102679.66;5091418;28;20118;-38
2023/03/01 11:14:22;;;;;;;21.90;14.52;;;;;;;4.45;52.08;102678.44;5104253;28;20571;-38
2023/03/01 11:16:57;;;;;;;21.25;13.88;;;;;;;4.46;52.02;102671.91;5112457;28;20115;-38
2023/03/01 11:19:23;;;;;;;21.33;14.10;;;;;;;4.57;52.01;102692.28;5112002;28;20111;-39